createdAt,value
2018-09-12T00:02:24.957Z,16.8
2018-09-12T00:07:24.741Z,16.7
2018-09-12T00:12:24.753Z,16.4
2018-09-12T00:17:24.754Z,16.3
2018-09-12T00:22:24.740Z,16.3
2018-09-12T00:27:24.764Z,16.1
2018-09-12T00:32:26.761Z,16.1
2018-09-12T00:37:26.630Z,16
2018-09-12T00:42:39.074Z,16
2018-09-12T00:47:38.970Z,16
2018-09-12T00:52:39.047Z,15.9
2018-09-12T00:57:38.795Z,15.9
2018-09-12T01:02:38.780Z,15.8
2018-09-12T01:07:39.343Z,15.6
2018-09-12T01:12:39.364Z,15.6
2018-09-12T01:17:41.354Z,15.3
2018-09-12T01:22:41.270Z,15.3
2018-09-12T01:27:53.346Z,15.3
2018-09-12T01:32:53.213Z,15.3
2018-09-12T01:37:53.183Z,15.3
2018-09-12T01:42:54.203Z,15.3
2018-09-12T01:47:53.068Z,15.3
2018-09-12T01:52:53.072Z,15.1
2018-09-12T01:57:53.090Z,15.2
2018-09-12T02:02:58.454Z,15.2
2018-09-12T02:07:58.378Z,15.2
2018-09-12T02:13:10.837Z,15.1
2018-09-12T02:18:10.728Z,14.9
2018-09-12T02:23:10.568Z,14.9
2018-09-12T02:28:10.521Z,14.7
2018-09-12T02:33:10.735Z,14.8
2018-09-12T02:38:10.693Z,14.8
2018-09-12T02:43:10.918Z,14.6
2018-09-12T02:48:11.960Z,14.7
2018-09-12T02:53:11.791Z,14.7
2018-09-12T02:58:24.331Z,14.7
2018-09-12T03:03:24.035Z,14.6
2018-09-12T03:08:24.291Z,14.5
2018-09-12T03:13:24.324Z,14.5
2018-09-12T03:18:24.176Z,14.5
2018-09-12T03:23:24.171Z,14.3
2018-09-12T03:28:24.053Z,14.2
2018-09-12T03:33:24.456Z,14.2
2018-09-12T03:38:24.390Z,14.2
2018-09-12T03:43:36.325Z,14.2
2018-09-12T03:48:35.997Z,14.1
2018-09-12T03:53:36.055Z,14
2018-09-12T03:58:36.036Z,14
2018-09-12T04:03:36.222Z,13.9
2018-09-12T04:08:36.059Z,13.9
2018-09-12T04:13:36.043Z,13.9
2018-09-12T04:18:41.027Z,13.7
2018-09-12T04:23:40.766Z,13.7
2018-09-12T04:28:48.005Z,13.6
2018-09-12T04:33:47.718Z,13.7
2018-09-12T04:38:47.729Z,13.6
2018-09-12T04:43:47.755Z,13.6
2018-09-12T04:48:47.760Z,13.5
2018-09-12T04:53:47.736Z,13.6
2018-09-12T04:58:47.991Z,13.6
2018-09-12T05:03:47.911Z,13.5
2018-09-12T05:08:47.946Z,13.5
2018-09-12T05:13:47.720Z,13.7
2018-09-12T05:18:47.902Z,13.9
2018-09-12T05:23:47.758Z,14
2018-09-12T05:28:48.322Z,14
2018-09-12T05:33:48.203Z,14.3
2018-09-12T05:39:00.615Z,14.3
2018-09-12T05:44:00.368Z,14.5
2018-09-12T05:49:00.352Z,14.7
2018-09-12T05:54:00.374Z,14.8
2018-09-12T05:59:00.568Z,15.2
2018-09-12T06:04:00.382Z,15.1
2018-09-12T06:09:00.386Z,15.5
2018-09-12T06:14:02.097Z,15.7
2018-09-12T06:19:01.709Z,16
2018-09-12T06:24:15.855Z,16.2
2018-09-12T06:29:18.683Z,16.4
2018-09-12T06:34:15.538Z,16.7
2018-09-12T06:39:15.615Z,17
2018-09-12T06:44:15.726Z,17.3
2018-09-12T06:49:16.638Z,17.4
2018-09-12T06:54:16.816Z,17.8
2018-09-12T06:59:16.996Z,18
2018-09-12T07:04:16.732Z,18.3
2018-09-12T07:09:29.349Z,18.6
2018-09-12T07:14:29.078Z,18.9
2018-09-12T07:19:29.101Z,19.1
2018-09-12T07:24:29.267Z,19.4
2018-09-12T07:29:29.067Z,19.7
2018-09-12T07:34:29.049Z,20
2018-09-12T07:39:29.313Z,20.3
2018-09-12T07:44:30.155Z,20.4
2018-09-12T07:49:29.994Z,20.6
2018-09-12T07:54:47.721Z,20.8
2018-09-12T07:59:47.452Z,21.1
2018-09-12T08:04:52.261Z,21.3
2018-09-12T08:09:52.163Z,21.6
2018-09-12T08:15:02.796Z,21.8
2018-09-12T08:20:02.460Z,22
2018-09-12T08:25:02.463Z,22.1
2018-09-12T08:30:02.628Z,22.2
2018-09-12T08:35:02.477Z,22.5
2018-09-12T08:40:02.611Z,22.6
2018-09-12T08:45:02.640Z,22.8
2018-09-12T08:50:03.136Z,22.8
2018-09-12T08:55:02.825Z,23.2
2018-09-12T09:00:15.404Z,23.4
2018-09-12T09:05:15.265Z,23.6
2018-09-12T09:10:15.316Z,23.6
2018-09-12T09:15:15.335Z,23.8
2018-09-12T09:20:15.254Z,24.2
2018-09-12T09:25:15.295Z,24.2
2018-09-12T09:30:15.099Z,24.3
2018-09-12T09:35:15.885Z,24.6
2018-09-12T09:40:15.535Z,24.5
2018-09-12T09:45:28.468Z,24.7
2018-09-12T09:50:28.171Z,24.8
2018-09-12T09:55:28.409Z,24.8
2018-09-12T10:00:28.501Z,25.3
2018-09-12T10:05:28.148Z,25.2
2018-09-12T10:10:29.992Z,25.3
2018-09-12T10:15:29.991Z,25.5
2018-09-12T10:20:30.003Z,25.6
2018-09-12T10:25:30.012Z,25.6
2018-09-12T10:30:42.659Z,25.9
2018-09-12T10:35:42.627Z,26.2
2018-09-12T10:40:42.373Z,26.2
2018-09-12T10:45:42.634Z,26.4
2018-09-12T10:50:42.653Z,26.6
2018-09-12T10:55:42.669Z,26.5
2018-09-12T11:00:42.884Z,26.6
2018-09-12T11:05:42.697Z,26.9
2018-09-12T11:10:42.675Z,27
2018-09-12T11:15:42.668Z,27.1
2018-09-12T11:20:42.807Z,27.2
2018-09-12T11:25:42.671Z,27.3
2018-09-12T11:30:46.082Z,27.5
2018-09-12T11:35:45.768Z,27.5
2018-09-12T11:40:58.981Z,27.5
2018-09-12T11:45:58.820Z,27.7
2018-09-12T11:50:58.700Z,27.8
2018-09-12T11:55:58.711Z,27.9
2018-09-12T12:00:58.956Z,28.1
2018-09-12T12:05:58.724Z,28.3
2018-09-12T12:10:58.928Z,27.9
2018-09-12T12:15:58.876Z,28.1
2018-09-12T12:20:58.853Z,28.4
2018-09-12T12:25:58.935Z,28.4
2018-09-12T12:30:58.769Z,28.4
2018-09-12T12:35:58.858Z,28.4
2018-09-12T12:40:59.099Z,28.5
2018-09-12T12:45:58.824Z,28.6
2018-09-12T12:51:11.499Z,28.7
2018-09-12T12:56:11.304Z,28.5
2018-09-12T13:01:11.372Z,28.6
2018-09-12T13:06:11.270Z,28.9
2018-09-12T13:11:11.312Z,28.9
2018-09-12T13:16:11.115Z,28.8
2018-09-12T13:21:11.338Z,28.9
2018-09-12T13:26:12.924Z,28.7
2018-09-12T13:31:12.653Z,28.8
2018-09-12T13:36:24.942Z,28.8
2018-09-12T13:41:24.840Z,28.9
2018-09-12T13:46:24.631Z,29
2018-09-12T13:51:24.796Z,29.1
2018-09-12T13:56:24.864Z,29.2
2018-09-12T14:01:25.281Z,29
2018-09-12T14:06:24.930Z,29.2
2018-09-12T14:11:25.005Z,29
2018-09-12T14:16:25.190Z,28.9
2018-09-12T14:21:25.217Z,28.9
2018-09-12T14:26:24.996Z,28.9
2018-09-12T14:31:25.002Z,28.9
2018-09-12T14:36:25.370Z,28.8
2018-09-12T14:41:25.254Z,28.8
2018-09-12T14:46:38.560Z,28.7
2018-09-12T14:51:38.224Z,28.7
2018-09-12T14:56:38.056Z,28.7
2018-09-12T15:01:38.177Z,28.6
2018-09-12T15:06:38.064Z,28.5
2018-09-12T15:11:38.035Z,28.5
2018-09-12T15:16:38.061Z,28.4
2018-09-12T15:21:38.229Z,28.3
2018-09-12T15:26:38.210Z,28.3
2018-09-12T15:31:51.896Z,28.3
2018-09-12T15:36:51.619Z,28.2
2018-09-12T15:41:51.781Z,28.1
2018-09-12T15:46:51.800Z,28
2018-09-12T15:51:51.850Z,28
2018-09-12T15:56:53.937Z,27.9
2018-09-12T16:01:53.595Z,27.8
2018-09-12T16:06:53.780Z,27.7
2018-09-12T16:11:53.659Z,27.5
2018-09-12T16:16:53.700Z,27.4
2018-09-12T16:21:53.644Z,27.3
2018-09-12T16:26:53.820Z,27.2
2018-09-12T16:31:53.678Z,27
2018-09-12T16:36:53.621Z,26.8
2018-09-12T16:42:05.340Z,26.5
2018-09-12T16:47:05.060Z,26.3
2018-09-12T16:52:05.083Z,26
2018-09-12T16:57:05.034Z,25.8
2018-09-12T17:02:05.076Z,25.5
2018-09-12T17:07:05.093Z,25.3
2018-09-12T17:12:05.083Z,25
2018-09-12T17:17:05.108Z,24.7
2018-09-12T17:22:05.097Z,24.3
2018-09-12T17:27:16.664Z,24.2
2018-09-12T17:32:16.421Z,23.7
2018-09-12T17:37:16.396Z,23.4
2018-09-12T17:42:16.458Z,23.3
2018-09-12T17:47:16.415Z,23.2
2018-09-12T17:52:16.412Z,23
2018-09-12T17:57:16.583Z,22.9
2018-09-12T18:02:17.331Z,22.7
2018-09-12T18:07:17.247Z,22.5
2018-09-12T18:12:31.327Z,22.3
2018-09-12T18:17:30.213Z,22.2
2018-09-12T18:22:30.241Z,22.1
2018-09-12T18:27:30.230Z,21.8
2018-09-12T18:32:30.224Z,21.7
2018-09-12T18:37:30.236Z,21.4
2018-09-12T18:42:30.255Z,21.4
2018-09-12T18:47:30.206Z,21.2
2018-09-12T18:52:30.254Z,21.1
2018-09-12T18:57:30.513Z,21.1
2018-09-12T19:02:30.419Z,21
2018-09-12T19:07:30.427Z,20.9
2018-09-12T19:12:31.310Z,20.7
2018-09-12T19:17:31.105Z,20.6
2018-09-12T19:22:44.037Z,20.4
2018-09-12T19:27:43.842Z,20.2
2018-09-12T19:32:43.779Z,20.1
2018-09-12T19:37:43.996Z,20.1
2018-09-12T19:42:43.706Z,20
2018-09-12T19:47:43.746Z,19.9
2018-09-12T19:52:43.705Z,19.9
2018-09-12T19:57:43.899Z,19.9
2018-09-12T20:02:43.964Z,19.9
2018-09-12T20:07:43.770Z,19.8
2018-09-12T20:12:43.892Z,19.7
2018-09-12T20:17:43.936Z,19.6
2018-09-12T20:22:44.904Z,19.5
2018-09-12T20:27:44.506Z,19.3
2018-09-12T20:32:56.648Z,19.3
2018-09-12T20:37:56.398Z,19.3
2018-09-12T20:42:56.412Z,19.2
2018-09-12T20:47:56.543Z,19.1
2018-09-12T20:52:56.413Z,19.1
2018-09-12T20:57:56.394Z,19
2018-09-12T21:02:56.656Z,18.9
2018-09-12T21:07:56.784Z,18.9
2018-09-12T21:12:56.642Z,18.8
2018-09-12T21:18:09.026Z,18.7
2018-09-12T21:23:08.630Z,18.7
2018-09-12T21:28:08.688Z,18.6
2018-09-12T21:33:08.794Z,18.4
2018-09-12T21:38:08.807Z,18.4
2018-09-12T21:43:08.669Z,18.5
2018-09-12T21:48:08.696Z,18.4
2018-09-12T21:53:08.851Z,18.3
2018-09-12T21:58:08.691Z,18.3
2018-09-12T22:03:08.688Z,18.3
2018-09-12T22:08:08.888Z,18.3
2018-09-12T22:13:08.696Z,18.1
2018-09-12T22:18:08.700Z,18
2018-09-12T22:23:08.740Z,18
2018-09-12T22:28:20.945Z,17.9
2018-09-12T22:33:20.802Z,18
2018-09-12T22:38:20.841Z,17.9
2018-09-12T22:43:20.705Z,17.8
2018-09-12T22:48:20.912Z,17.8
2018-09-12T22:53:20.722Z,17.7
2018-09-12T22:58:20.872Z,17.7
2018-09-12T23:03:22.671Z,17.6
2018-09-12T23:08:22.582Z,17.5
2018-09-12T23:13:32.575Z,17.6
2018-09-12T23:18:32.321Z,17.6
2018-09-12T23:23:32.517Z,17.5
2018-09-12T23:28:32.431Z,17.4
2018-09-12T23:33:32.329Z,17.3
2018-09-12T23:38:32.346Z,17.2
2018-09-12T23:43:32.414Z,16.9
2018-09-12T23:48:32.484Z,17
2018-09-12T23:53:32.521Z,17.1
2018-09-12T23:58:32.297Z,16.9
